ROI weather

Dyess Army Air Field
Roi-Namur, Kwajalein, Marshall Islands

Public forecast

Using degrees Celsius for public forecast. Weather courtesy of forecast.io.

Closest aviation weather report (METAR) to Dyess Army Air Field

Closest report is Bucholz Army Air Field, 43.5 nm (80.5 km) SSE. Retrieved 2019/10/24 04:40 UTC (0 seconds ago):

PKWA 240440Z AUTO 08006KT 10SM BKN060 BKN070 30/26 A2975 RMK AO2 T03020257

Closest aviation forecast (TAF) to Dyess Army Air Field

Closest forecast is Bucholz Army Air Field, 43.5 nm (80.5 km) SSE. Retrieved 2019-10-24 00:39 UTC (4 hours ago):

TAF PKWA 232334Z 2400/2424 05010KT P6SM -RA SCT016 BKN040 OVC120 FM240200 06010KT P6SM VCSH FEW016 SCT040 BKN120